createdAt,value
2019-03-04T00:00:36.838Z,15.87
2019-03-04T00:03:41.613Z,14.90
2019-03-04T00:06:46.560Z,15.40
2019-03-04T00:09:51.363Z,15.67
2019-03-04T00:12:56.222Z,16.10
2019-03-04T00:16:00.916Z,15.40
2019-03-04T00:19:05.771Z,14.63
2019-03-04T00:22:12.643Z,16.07
2019-03-04T00:25:17.486Z,15.57
2019-03-04T00:28:22.408Z,15.33
2019-03-04T00:31:27.148Z,15.80
2019-03-04T00:34:31.704Z,16.50
2019-03-04T00:37:36.597Z,15.73
2019-03-04T00:40:41.352Z,16.27
2019-03-04T00:43:46.076Z,16.30
2019-03-04T00:46:50.891Z,15.60
2019-03-04T00:49:56.992Z,16.30
2019-03-04T00:53:01.863Z,17.63
2019-03-04T00:56:06.702Z,16.50
2019-03-04T00:59:14.088Z,15.67
2019-03-04T01:02:19.061Z,16.77
2019-03-04T01:05:23.766Z,16.90
2019-03-04T01:08:28.308Z,16.83
2019-03-04T01:11:36.960Z,18.07
2019-03-04T01:14:41.306Z,16.90
2019-03-04T01:17:46.021Z,17.30
2019-03-04T01:20:52.061Z,17.40
2019-03-04T01:23:56.713Z,17.90
2019-03-04T01:27:01.141Z,17.50
2019-03-04T01:30:06.426Z,18.13
2019-03-04T01:33:11.208Z,17.73
2019-03-04T01:36:15.954Z,17.07
2019-03-04T01:39:22.184Z,17.97
2019-03-04T01:42:26.983Z,18.37
2019-03-04T01:45:31.752Z,17.23
2019-03-04T01:48:37.721Z,18.07
2019-03-04T01:51:42.549Z,17.90
2019-03-04T01:54:47.480Z,18.10
2019-03-04T01:57:52.207Z,17.33
2019-03-04T02:00:57.141Z,17.80
2019-03-04T02:04:01.977Z,16.90
2019-03-04T02:07:08.255Z,17.23
2019-03-04T02:10:17.349Z,17.00
2019-03-04T02:13:22.091Z,17.07
2019-03-04T02:16:27.056Z,17.40
2019-03-04T02:19:32.607Z,17.40
2019-03-04T02:22:37.241Z,16.43
2019-03-04T02:26:07.513Z,16.50
2019-03-04T02:29:13.930Z,15.27
2019-03-04T02:32:18.800Z,17.70
2019-03-04T02:35:23.660Z,16.20
2019-03-04T02:38:28.270Z,16.20
2019-03-04T02:41:35.300Z,15.43
2019-03-04T02:44:40.222Z,14.87
2019-03-04T02:47:45.029Z,14.27
2019-03-04T02:50:49.978Z,15.67
2019-03-04T02:53:54.787Z,15.60
2019-03-04T02:56:59.416Z,14.37
2019-03-04T03:00:04.237Z,15.50
2019-03-04T03:03:09.199Z,14.80
2019-03-04T03:06:13.928Z,14.93
2019-03-04T03:09:20.235Z,14.40
2019-03-04T03:12:24.929Z,13.47
2019-03-04T03:15:29.710Z,13.90
2019-03-04T03:18:34.575Z,14.37
2019-03-04T03:21:39.373Z,14.00
2019-03-04T03:24:44.123Z,14.20
2019-03-04T03:27:48.842Z,13.20
2019-03-04T03:30:53.614Z,14.03
2019-03-04T03:34:00.311Z,13.43
2019-03-04T03:37:05.081Z,13.20
2019-03-04T03:40:11.275Z,12.73
2019-03-04T03:43:18.272Z,12.20
2019-03-04T03:46:24.749Z,12.43
2019-03-04T03:49:29.197Z,12.70
2019-03-04T03:52:36.298Z,11.83
2019-03-04T03:55:41.007Z,12.37
2019-03-04T03:58:45.846Z,12.83
2019-03-04T04:01:52.044Z,11.90
2019-03-04T04:04:57.134Z,12.00
2019-03-04T04:08:01.912Z,11.73
2019-03-04T04:11:06.586Z,11.37
2019-03-04T04:14:12.538Z,11.10
2019-03-04T04:17:17.291Z,11.50
2019-03-04T04:20:24.475Z,10.50
2019-03-04T04:23:31.156Z,11.60
2019-03-04T04:26:37.000Z,11.20
2019-03-04T04:29:44.121Z,11.43
2019-03-04T04:34:12.360Z,11.83
2019-03-04T04:37:17.011Z,10.50
2019-03-04T04:40:22.945Z,10.00
2019-03-04T04:43:27.717Z,10.00
2019-03-04T04:46:55.056Z,10.23
2019-03-04T04:49:59.980Z,10.83
2019-03-04T04:53:06.417Z,10.50
2019-03-04T04:56:11.289Z,9.83
2019-03-04T04:59:16.030Z,10.43
2019-03-04T05:02:20.819Z,9.43
2019-03-04T05:05:25.373Z,10.13
2019-03-04T05:08:30.238Z,10.40
2019-03-04T05:11:35.031Z,10.53
2019-03-04T05:14:39.886Z,10.37
2019-03-04T05:17:46.268Z,9.60
2019-03-04T05:20:50.861Z,10.77
2019-03-04T05:23:55.706Z,11.03
2019-03-04T05:27:00.520Z,11.03
2019-03-04T05:30:06.591Z,11.27
2019-03-04T05:33:11.401Z,11.10
2019-03-04T05:36:16.016Z,10.73
2019-03-04T05:39:22.156Z,10.77
2019-03-04T05:42:26.940Z,10.33
2019-03-04T05:45:31.742Z,11.60
2019-03-04T05:48:36.389Z,11.37
2019-03-04T05:51:42.655Z,10.30
2019-03-04T05:54:47.383Z,11.17
2019-03-04T05:57:52.349Z,10.70
2019-03-04T06:01:23.748Z,11.80
2019-03-04T06:04:28.581Z,11.80
2019-03-04T06:07:52.176Z,10.10
2019-03-04T06:10:57.089Z,10.73
2019-03-04T06:14:01.799Z,11.50
2019-03-04T06:17:06.627Z,11.50
2019-03-04T06:20:19.617Z,11.13
2019-03-04T06:23:25.909Z,11.30
2019-03-04T06:26:30.633Z,11.37
2019-03-04T06:29:37.752Z,12.30
2019-03-04T06:32:42.552Z,12.27
2019-03-04T06:35:48.421Z,11.23
2019-03-04T06:38:53.244Z,11.33
2019-03-04T06:41:58.054Z,10.73
2019-03-04T06:45:02.899Z,10.27
2019-03-04T06:48:07.620Z,10.80
2019-03-04T06:51:15.410Z,9.60
2019-03-04T06:54:50.843Z,10.90
2019-03-04T06:57:55.881Z,10.17
2019-03-04T07:01:07.389Z,11.30
2019-03-04T07:04:33.877Z,10.37
2019-03-04T07:07:38.655Z,11.13
2019-03-04T07:10:43.360Z,10.27
2019-03-04T07:13:48.278Z,10.27
2019-03-04T07:16:55.768Z,10.37
2019-03-04T07:20:06.638Z,10.17
2019-03-04T07:23:11.376Z,10.27
2019-03-04T07:26:16.301Z,11.30
2019-03-04T07:29:21.238Z,10.97
2019-03-04T07:32:29.108Z,9.23
2019-03-04T07:35:33.875Z,10.20
2019-03-04T07:38:51.738Z,9.53
2019-03-04T07:42:00.212Z,10.47
2019-03-04T07:45:09.433Z,10.13
2019-03-04T07:48:13.153Z,10.37
2019-03-04T07:51:22.596Z,9.60
2019-03-04T07:54:31.050Z,9.60
2019-03-04T07:57:36.825Z,9.67
2019-03-04T08:00:42.250Z,9.70
2019-03-04T08:03:47.203Z,9.20
2019-03-04T08:06:52.373Z,9.57
2019-03-04T08:10:28.633Z,10.17
2019-03-04T08:13:44.245Z,9.07
2019-03-04T08:16:52.236Z,8.77
2019-03-04T08:19:57.567Z,9.10
2019-03-04T08:23:07.173Z,9.77
2019-03-04T08:26:13.978Z,9.60
2019-03-04T08:29:19.257Z,9.17
2019-03-04T08:32:26.124Z,9.13
2019-03-04T08:35:31.721Z,9.17
2019-03-04T08:38:37.281Z,9.00
2019-03-04T08:41:43.602Z,9.10
2019-03-04T08:44:48.653Z,9.80
2019-03-04T08:47:54.327Z,9.87
2019-03-04T08:51:02.323Z,8.87
2019-03-04T08:54:07.140Z,8.83
2019-03-04T08:57:12.398Z,9.27
2019-03-04T09:00:24.272Z,8.60
2019-03-04T09:03:30.648Z,9.27
2019-03-04T09:06:36.301Z,9.90
2019-03-04T09:09:41.402Z,8.93
2019-03-04T09:12:47.701Z,8.70
2019-03-04T09:15:52.646Z,8.57
2019-03-04T09:18:57.993Z,9.37
2019-03-04T09:22:03.059Z,9.63
2019-03-04T09:25:12.294Z,9.67
2019-03-04T09:28:17.467Z,9.00
2019-03-04T09:31:23.725Z,9.70
2019-03-04T09:34:28.569Z,9.30
2019-03-04T09:37:33.906Z,8.93
2019-03-04T09:40:39.651Z,9.90
2019-03-04T09:43:44.606Z,9.03
2019-03-04T09:46:50.653Z,9.10
2019-03-04T09:49:55.710Z,9.10
2019-03-04T09:53:01.209Z,9.00
2019-03-04T09:56:07.515Z,9.30
2019-03-04T09:59:13.021Z,8.70
2019-03-04T10:02:27.184Z,8.87
2019-03-04T10:05:45.526Z,8.80
2019-03-04T10:09:08.473Z,10.20
2019-03-04T10:12:59.619Z,9.20
2019-03-04T10:16:48.761Z,8.87
2019-03-04T10:20:37.701Z,10.00
2019-03-04T10:23:56.046Z,9.80
2019-03-04T10:27:54.088Z,32.50
2019-03-04T10:31:39.380Z,24.73
2019-03-04T10:35:19.246Z,21.07
2019-03-04T10:38:50.272Z,19.70
2019-03-04T10:42:31.615Z,19.17
2019-03-04T10:46:20.558Z,19.47
2019-03-04T10:49:26.242Z,18.80
2019-03-04T10:52:31.676Z,23.03
2019-03-04T10:55:41.951Z,26.47
2019-03-04T10:58:44.670Z,23.97
2019-03-04T11:01:50.183Z,23.17
2019-03-04T11:04:57.416Z,25.00
2019-03-04T11:08:02.067Z,29.70
2019-03-04T11:11:06.771Z,31.57
2019-03-04T11:14:13.609Z,40.00
2019-03-04T11:17:18.487Z,43.77
2019-03-04T11:20:24.610Z,45.63
2019-03-04T11:23:31.743Z,46.23
2019-03-04T11:26:38.064Z,45.77
2019-03-04T11:29:42.727Z,50.50
2019-03-04T11:32:48.837Z,52.20
2019-03-04T11:35:55.032Z,48.90
2019-03-04T11:39:04.921Z,50.20
2019-03-04T11:42:09.623Z,48.07
2019-03-04T11:45:15.376Z,47.80
2019-03-04T11:48:20.082Z,47.33
2019-03-04T11:51:26.276Z,47.20
2019-03-04T11:54:31.109Z,49.90
2019-03-04T11:57:35.910Z,50.87
2019-03-04T12:00:44.565Z,48.83
2019-03-04T12:03:49.474Z,47.90
2019-03-04T12:06:54.302Z,46.40
2019-03-04T12:10:01.200Z,51.90
2019-03-04T12:13:06.024Z,52.60
2019-03-04T12:16:12.193Z,53.77
2019-03-04T12:19:18.115Z,51.43
2019-03-04T12:22:24.750Z,50.20
2019-03-04T12:25:29.422Z,50.40
2019-03-04T12:28:34.157Z,50.13
2019-03-04T12:32:04.852Z,49.73
2019-03-04T12:35:11.240Z,51.23
2019-03-04T12:38:16.057Z,51.30
2019-03-04T12:41:21.792Z,51.17
2019-03-04T12:44:26.532Z,49.23
2019-03-04T12:47:32.368Z,50.73
2019-03-04T12:50:36.930Z,50.30
2019-03-04T12:53:41.761Z,24.60
2019-03-04T12:56:46.474Z,37.47
2019-03-04T12:59:51.219Z,39.07
2019-03-04T13:02:57.866Z,42.93
2019-03-04T13:06:02.095Z,41.67
2019-03-04T13:09:14.191Z,40.27
2019-03-04T13:12:13.288Z,40.70
2019-03-04T13:15:20.081Z,39.90
2019-03-04T13:18:24.883Z,39.00
2019-03-04T13:21:29.623Z,40.53
2019-03-04T13:24:34.440Z,38.77
2019-03-04T13:27:41.963Z,40.07
2019-03-04T13:30:51.294Z,38.70
2019-03-04T13:33:56.116Z,38.50
2019-03-04T13:37:00.759Z,38.73
2019-03-04T13:40:06.690Z,36.40
2019-03-04T13:43:11.634Z,37.10
2019-03-04T13:46:19.947Z,36.20
2019-03-04T13:49:27.469Z,38.60
2019-03-04T13:52:34.076Z,37.17
2019-03-04T13:55:38.924Z,36.40
2019-03-04T13:58:43.452Z,37.70
2019-03-04T14:01:48.294Z,40.17
2019-03-04T14:04:53.109Z,34.23
2019-03-04T14:07:58.061Z,33.27
2019-03-04T14:11:03.188Z,31.27
2019-03-04T14:14:10.456Z,31.60
2019-03-04T14:17:14.477Z,30.53
2019-03-04T14:20:19.313Z,30.60
2019-03-04T14:23:25.461Z,29.00
2019-03-04T14:26:37.476Z,28.80
2019-03-04T14:29:42.307Z,27.43
2019-03-04T14:32:49.584Z,26.63
2019-03-04T14:35:55.666Z,26.30
2019-03-04T14:39:00.274Z,139.37
2019-03-04T14:42:07.599Z,25.60
2019-03-04T14:45:14.408Z,26.63
2019-03-04T14:48:19.065Z,26.63
2019-03-04T14:51:25.764Z,27.17
2019-03-04T14:54:30.484Z,28.27
2019-03-04T14:57:36.647Z,30.67
2019-03-04T15:00:41.518Z,34.03
2019-03-04T15:03:46.387Z,35.80
2019-03-04T15:06:52.361Z,40.60
2019-03-04T15:09:57.181Z,41.30
2019-03-04T15:13:02.004Z,41.80
2019-03-04T15:16:09.663Z,42.80
2019-03-04T15:19:14.326Z,38.17
2019-03-04T15:22:34.411Z,37.63
2019-03-04T15:25:34.810Z,36.33
2019-03-04T15:28:41.142Z,37.43
2019-03-04T15:31:46.085Z,35.50
2019-03-04T15:34:51.090Z,37.20
2019-03-04T15:37:55.939Z,38.30
2019-03-04T15:41:00.689Z,37.20
2019-03-04T15:44:06.629Z,37.17
2019-03-04T15:47:12.346Z,37.00
2019-03-04T15:50:17.199Z,41.03
2019-03-04T15:53:22.135Z,38.30
2019-03-04T15:56:26.967Z,41.80
2019-03-04T15:59:31.895Z,42.50
2019-03-04T16:02:36.634Z,44.83
2019-03-04T16:05:41.576Z,52.80
2019-03-04T16:08:46.360Z,58.27
2019-03-04T16:11:51.206Z,60.67
2019-03-04T16:14:57.131Z,59.03
2019-03-04T16:18:01.765Z,59.97
2019-03-04T16:21:06.616Z,63.30
2019-03-04T16:24:11.226Z,64.47
2019-03-04T16:27:16.280Z,63.90
2019-03-04T16:30:21.574Z,68.17
2019-03-04T16:33:26.432Z,66.90
2019-03-04T16:36:31.616Z,66.37
2019-03-04T16:39:37.709Z,97.47
2019-03-04T16:42:42.578Z,81.33
2019-03-04T16:45:48.985Z,84.53
2019-03-04T16:48:53.791Z,87.00
2019-03-04T16:51:58.585Z,83.20
2019-03-04T16:55:03.534Z,85.27
2019-03-04T16:58:08.414Z,85.33
2019-03-04T17:01:13.215Z,90.40
2019-03-04T17:04:17.777Z,105.13
2019-03-04T17:07:22.469Z,102.43
2019-03-04T17:10:27.466Z,100.33
2019-03-04T17:13:32.433Z,100.47
2019-03-04T17:16:37.427Z,99.87
2019-03-04T17:19:42.185Z,99.77
2019-03-04T17:22:48.105Z,96.60
2019-03-04T17:25:52.975Z,95.43
2019-03-04T17:28:57.892Z,89.30
2019-03-04T17:32:02.835Z,89.20
2019-03-04T17:35:07.856Z,87.73
2019-03-04T17:38:12.594Z,140.80
2019-03-04T17:41:20.774Z,91.23
2019-03-04T17:44:25.931Z,83.67
2019-03-04T17:47:30.655Z,82.27
2019-03-04T17:50:36.321Z,80.30
2019-03-04T17:53:41.152Z,77.70
2019-03-04T17:56:45.774Z,76.63
2019-03-04T17:59:50.598Z,71.63
2019-03-04T18:02:55.407Z,71.40
2019-03-04T18:06:00.263Z,73.33
2019-03-04T18:09:05.692Z,69.97
2019-03-04T18:12:10.647Z,68.83
2019-03-04T18:15:20.209Z,71.37
2019-03-04T18:18:25.890Z,67.40
2019-03-04T18:21:31.993Z,132.80
2019-03-04T18:24:36.806Z,62.53
2019-03-04T18:27:54.657Z,63.03
2019-03-04T18:31:21.318Z,59.33
2019-03-04T18:35:10.431Z,61.90
2019-03-04T18:39:07.757Z,59.40
2019-03-04T18:42:50.057Z,57.17
2019-03-04T18:46:46.240Z,56.77
2019-03-04T18:49:52.640Z,57.00
2019-03-04T18:52:57.436Z,55.20
2019-03-04T18:56:04.462Z,54.93
2019-03-04T18:59:09.275Z,53.67
2019-03-04T19:02:13.875Z,56.40
2019-03-04T19:05:18.804Z,78.70
2019-03-04T19:08:23.832Z,77.93
2019-03-04T19:11:28.676Z,54.83
2019-03-04T19:14:33.602Z,54.97
2019-03-04T19:17:38.455Z,54.10
2019-03-04T19:20:43.188Z,52.13
2019-03-04T19:23:48.041Z,53.67
2019-03-04T19:26:52.924Z,51.13
2019-03-04T19:29:57.792Z,49.67
2019-03-04T19:33:02.515Z,48.37
2019-03-04T19:36:07.494Z,48.67
2019-03-04T19:39:12.416Z,46.00
2019-03-04T19:42:17.232Z,44.83
2019-03-04T19:45:22.052Z,47.23
2019-03-04T19:48:26.975Z,45.70
2019-03-04T19:51:31.795Z,44.90
2019-03-04T19:54:36.612Z,42.60
2019-03-04T19:57:41.367Z,42.70
2019-03-04T20:00:46.441Z,42.03
2019-03-04T20:03:51.210Z,41.90
2019-03-04T20:06:59.181Z,41.77
2019-03-04T20:10:03.944Z,40.30
2019-03-04T20:13:08.884Z,41.97
2019-03-04T20:16:16.380Z,47.47
2019-03-04T20:19:21.400Z,41.27
2019-03-04T20:22:26.114Z,42.60
2019-03-04T20:25:31.045Z,44.23
2019-03-04T20:28:35.766Z,42.00
2019-03-04T20:31:40.726Z,42.77
2019-03-04T20:34:45.883Z,40.63
2019-03-04T20:37:52.003Z,41.60
2019-03-04T20:40:56.428Z,39.27
2019-03-04T20:44:01.112Z,40.37
2019-03-04T20:47:05.942Z,39.90
2019-03-04T20:50:13.316Z,38.83
2019-03-04T20:53:21.172Z,38.40
2019-03-04T20:56:26.006Z,38.00
2019-03-04T20:59:30.842Z,38.00
2019-03-04T21:02:35.538Z,36.23
2019-03-04T21:05:40.185Z,36.43
2019-03-04T21:08:44.918Z,36.10
2019-03-04T21:11:49.661Z,34.20
2019-03-04T21:14:54.512Z,37.43
2019-03-04T21:17:59.096Z,40.90
2019-03-04T21:21:04.662Z,40.23
2019-03-04T21:24:09.465Z,41.27
2019-03-04T21:27:14.219Z,42.93
2019-03-04T21:30:51.114Z,42.33
2019-03-04T21:34:11.139Z,42.83
2019-03-04T21:37:43.206Z,43.00
2019-03-04T21:40:55.438Z,45.17
2019-03-04T21:44:28.482Z,41.63
2019-03-04T21:47:37.900Z,48.83
2019-03-04T21:51:24.511Z,48.37
2019-03-04T21:54:29.329Z,49.73
2019-03-04T21:57:37.129Z,48.40
2019-03-04T22:00:42.906Z,48.23
2019-03-04T22:03:47.803Z,49.00
2019-03-04T22:06:52.752Z,51.90
2019-03-04T22:09:57.574Z,50.23
2019-03-04T22:13:02.512Z,50.77
2019-03-04T22:16:07.262Z,50.30
2019-03-04T22:19:12.066Z,48.47
2019-03-04T22:22:17.030Z,49.63
2019-03-04T22:25:21.819Z,46.73
2019-03-04T22:28:27.773Z,45.60
2019-03-04T22:31:32.406Z,47.90
2019-03-04T22:34:37.258Z,46.87
2019-03-04T22:37:41.947Z,45.93
2019-03-04T22:40:46.599Z,45.00
2019-03-04T22:43:51.462Z,47.10
2019-03-04T22:46:56.461Z,49.43
2019-03-04T22:50:01.222Z,50.40
2019-03-04T22:53:06.041Z,47.07
2019-03-04T22:56:12.557Z,46.83
2019-03-04T22:59:17.332Z,47.30
2019-03-04T23:02:22.061Z,45.73
2019-03-04T23:05:26.878Z,45.97
2019-03-04T23:08:31.817Z,47.17
2019-03-04T23:11:36.738Z,44.20
2019-03-04T23:14:42.490Z,44.53
2019-03-04T23:17:47.517Z,44.23
2019-03-04T23:20:52.368Z,44.13
2019-03-04T23:23:57.124Z,43.10
2019-03-04T23:27:02.026Z,44.03
2019-03-04T23:30:08.459Z,44.43
2019-03-04T23:33:13.212Z,44.10
2019-03-04T23:36:18.048Z,46.00
2019-03-04T23:39:22.777Z,44.77
2019-03-04T23:42:27.724Z,47.73
2019-03-04T23:45:32.440Z,46.90
2019-03-04T23:48:37.377Z,46.03
2019-03-04T23:51:42.241Z,46.70
2019-03-04T23:54:47.034Z,45.93
2019-03-04T23:57:51.992Z,47.40
